sensor_id;sensor_type;location;lat;lon;timestamp;P1;durP1;ratioP1;P2;durP2;ratioP2
9398;SDS011;4739;49.334;8.792;2022-09-06T00:00:35;3.50;;;2.47;;
9398;SDS011;4739;49.334;8.792;2022-09-06T00:03:01;2.83;;;2.10;;
9398;SDS011;4739;49.334;8.792;2022-09-06T00:05:28;2.33;;;2.13;;
9398;SDS011;4739;49.334;8.792;2022-09-06T00:07:56;3.63;;;2.20;;
9398;SDS011;4739;49.334;8.792;2022-09-06T00:10:22;2.60;;;2.33;;
9398;SDS011;4739;49.334;8.792;2022-09-06T00:12:48;3.03;;;2.30;;
9398;SDS011;4739;49.334;8.792;2022-09-06T00:15:14;3.00;;;2.17;;
9398;SDS011;4739;49.334;8.792;2022-09-06T00:17:40;3.07;;;2.20;;
9398;SDS011;4739;49.334;8.792;2022-09-06T00:20:08;3.53;;;2.30;;
9398;SDS011;4739;49.334;8.792;2022-09-06T00:22:35;2.83;;;2.50;;
9398;SDS011;4739;49.334;8.792;2022-09-06T00:25:01;2.37;;;2.03;;
9398;SDS011;4739;49.334;8.792;2022-09-06T00:27:28;2.10;;;1.90;;
9398;SDS011;4739;49.334;8.792;2022-09-06T00:29:54;2.83;;;2.40;;
9398;SDS011;4739;49.334;8.792;2022-09-06T00:32:20;3.27;;;2.20;;
9398;SDS011;4739;49.334;8.792;2022-09-06T00:34:46;2.50;;;2.30;;
9398;SDS011;4739;49.334;8.792;2022-09-06T00:37:12;2.40;;;2.13;;
9398;SDS011;4739;49.334;8.792;2022-09-06T00:39:38;2.63;;;2.13;;
9398;SDS011;4739;49.334;8.792;2022-09-06T00:42:10;4.13;;;2.50;;
9398;SDS011;4739;49.334;8.792;2022-09-06T00:44:37;2.20;;;2.00;;
9398;SDS011;4739;49.334;8.792;2022-09-06T00:47:03;1.90;;;1.80;;
9398;SDS011;4739;49.334;8.792;2022-09-06T00:49:31;2.73;;;1.90;;
9398;SDS011;4739;49.334;8.792;2022-09-06T00:52:08;2.53;;;2.30;;
9398;SDS011;4739;49.334;8.792;2022-09-06T00:54:35;3.23;;;2.10;;
9398;SDS011;4739;49.334;8.792;2022-09-06T00:57:01;3.63;;;2.47;;
9398;SDS011;4739;49.334;8.792;2022-09-06T00:59:28;2.57;;;2.20;;
9398;SDS011;4739;49.334;8.792;2022-09-06T01:01:54;3.03;;;2.33;;
9398;SDS011;4739;49.334;8.792;2022-09-06T01:04:20;2.70;;;2.23;;
9398;SDS011;4739;49.334;8.792;2022-09-06T01:06:54;2.50;;;2.30;;
9398;SDS011;4739;49.334;8.792;2022-09-06T01:12:15;3.80;;;2.23;;
9398;SDS011;4739;49.334;8.792;2022-09-06T01:14:53;3.73;;;2.20;;
9398;SDS011;4739;49.334;8.792;2022-09-06T01:22:45;4.30;;;2.20;;
9398;SDS011;4739;49.334;8.792;2022-09-06T01:30:26;3.07;;;2.00;;
9398;SDS011;4739;49.334;8.792;2022-09-06T01:37:56;1.93;;;1.83;;
9398;SDS011;4739;49.334;8.792;2022-09-06T01:40:23;2.60;;;2.40;;
9398;SDS011;4739;49.334;8.792;2022-09-06T01:42:50;2.43;;;2.20;;
9398;SDS011;4739;49.334;8.792;2022-09-06T01:45:18;2.87;;;2.67;;
9398;SDS011;4739;49.334;8.792;2022-09-06T01:58:39;3.57;;;2.67;;
9398;SDS011;4739;49.334;8.792;2022-09-06T02:03:46;5.47;;;2.63;;
9398;SDS011;4739;49.334;8.792;2022-09-06T02:06:16;3.50;;;2.50;;
9398;SDS011;4739;49.334;8.792;2022-09-06T02:08:47;3.40;;;2.70;;
9398;SDS011;4739;49.334;8.792;2022-09-06T02:11:14;2.57;;;2.30;;
9398;SDS011;4739;49.334;8.792;2022-09-06T02:13:46;8.13;;;2.50;;
9398;SDS011;4739;49.334;8.792;2022-09-06T02:16:15;5.10;;;2.70;;
9398;SDS011;4739;49.334;8.792;2022-09-06T02:18:43;6.03;;;2.60;;
9398;SDS011;4739;49.334;8.792;2022-09-06T02:21:13;3.50;;;2.47;;
9398;SDS011;4739;49.334;8.792;2022-09-06T02:23:39;8.03;;;2.77;;
9398;SDS011;4739;49.334;8.792;2022-09-06T02:26:17;13.13;;;4.90;;
9398;SDS011;4739;49.334;8.792;2022-09-06T02:28:43;14.00;;;5.30;;
9398;SDS011;4739;49.334;8.792;2022-09-06T02:31:11;13.93;;;4.60;;
9398;SDS011;4739;49.334;8.792;2022-09-06T02:33:40;12.07;;;4.50;;
9398;SDS011;4739;49.334;8.792;2022-09-06T02:36:08;8.57;;;4.30;;
9398;SDS011;4739;49.334;8.792;2022-09-06T02:38:35;7.00;;;4.07;;
9398;SDS011;4739;49.334;8.792;2022-09-06T02:41:02;4.70;;;3.57;;
9398;SDS011;4739;49.334;8.792;2022-09-06T02:43:29;6.40;;;4.10;;
9398;SDS011;4739;49.334;8.792;2022-09-06T02:45:55;6.13;;;3.97;;
9398;SDS011;4739;49.334;8.792;2022-09-06T02:48:21;4.97;;;4.23;;
9398;SDS011;4739;49.334;8.792;2022-09-06T02:50:47;7.27;;;4.80;;
9398;SDS011;4739;49.334;8.792;2022-09-06T02:53:13;6.60;;;4.43;;
9398;SDS011;4739;49.334;8.792;2022-09-06T02:55:40;6.80;;;4.37;;
9398;SDS011;4739;49.334;8.792;2022-09-06T02:58:07;5.10;;;4.27;;
9398;SDS011;4739;49.334;8.792;2022-09-06T03:00:33;6.73;;;4.03;;
9398;SDS011;4739;49.334;8.792;2022-09-06T03:02:59;8.97;;;4.73;;
9398;SDS011;4739;49.334;8.792;2022-09-06T03:05:25;6.03;;;4.50;;
9398;SDS011;4739;49.334;8.792;2022-09-06T03:07:52;5.73;;;4.30;;
9398;SDS011;4739;49.334;8.792;2022-09-06T03:10:19;5.47;;;4.50;;
9398;SDS011;4739;49.334;8.792;2022-09-06T03:12:45;4.67;;;4.27;;
9398;SDS011;4739;49.334;8.792;2022-09-06T03:15:12;5.50;;;4.23;;
9398;SDS011;4739;49.334;8.792;2022-09-06T03:17:39;5.37;;;4.87;;
9398;SDS011;4739;49.334;8.792;2022-09-06T03:20:05;7.40;;;4.70;;
9398;SDS011;4739;49.334;8.792;2022-09-06T03:22:31;4.50;;;4.10;;
9398;SDS011;4739;49.334;8.792;2022-09-06T03:24:57;5.30;;;4.50;;
9398;SDS011;4739;49.334;8.792;2022-09-06T03:27:23;5.80;;;5.20;;
9398;SDS011;4739;49.334;8.792;2022-09-06T03:29:49;7.13;;;5.10;;
9398;SDS011;4739;49.334;8.792;2022-09-06T03:32:15;5.40;;;4.50;;
9398;SDS011;4739;49.334;8.792;2022-09-06T03:34:41;5.17;;;4.67;;
9398;SDS011;4739;49.334;8.792;2022-09-06T03:37:07;5.53;;;5.10;;
9398;SDS011;4739;49.334;8.792;2022-09-06T03:39:33;4.70;;;4.30;;
9398;SDS011;4739;49.334;8.792;2022-09-06T03:41:59;6.13;;;4.90;;
9398;SDS011;4739;49.334;8.792;2022-09-06T03:44:25;5.37;;;4.87;;
9398;SDS011;4739;49.334;8.792;2022-09-06T03:46:51;6.23;;;4.60;;
9398;SDS011;4739;49.334;8.792;2022-09-06T03:49:17;5.40;;;4.90;;
9398;SDS011;4739;49.334;8.792;2022-09-06T03:51:43;5.33;;;4.90;;
9398;SDS011;4739;49.334;8.792;2022-09-06T03:54:09;5.63;;;4.87;;
9398;SDS011;4739;49.334;8.792;2022-09-06T03:56:35;5.30;;;4.80;;
9398;SDS011;4739;49.334;8.792;2022-09-06T03:59:01;7.23;;;5.20;;
9398;SDS011;4739;49.334;8.792;2022-09-06T04:01:27;5.90;;;5.10;;
9398;SDS011;4739;49.334;8.792;2022-09-06T04:03:53;5.67;;;5.07;;
9398;SDS011;4739;49.334;8.792;2022-09-06T04:06:19;5.30;;;4.80;;
9398;SDS011;4739;49.334;8.792;2022-09-06T04:08:45;5.33;;;4.83;;
9398;SDS011;4739;49.334;8.792;2022-09-06T04:11:11;5.43;;;4.93;;
9398;SDS011;4739;49.334;8.792;2022-09-06T04:13:37;5.23;;;4.67;;
9398;SDS011;4739;49.334;8.792;2022-09-06T04:16:03;10.93;;;5.23;;
9398;SDS011;4739;49.334;8.792;2022-09-06T04:18:30;4.73;;;4.30;;
9398;SDS011;4739;49.334;8.792;2022-09-06T04:20:56;5.40;;;4.73;;
9398;SDS011;4739;49.334;8.792;2022-09-06T04:23:23;4.90;;;4.50;;
9398;SDS011;4739;49.334;8.792;2022-09-06T04:25:50;5.23;;;4.67;;
9398;SDS011;4739;49.334;8.792;2022-09-06T04:28:17;5.27;;;4.87;;
9398;SDS011;4739;49.334;8.792;2022-09-06T04:30:43;6.83;;;5.03;;
9398;SDS011;4739;49.334;8.792;2022-09-06T04:33:10;5.43;;;4.70;;
9398;SDS011;4739;49.334;8.792;2022-09-06T04:35:36;5.67;;;5.17;;
9398;SDS011;4739;49.334;8.792;2022-09-06T04:38:02;5.70;;;5.20;;
9398;SDS011;4739;49.334;8.792;2022-09-06T04:40:28;5.67;;;4.77;;
9398;SDS011;4739;49.334;8.792;2022-09-06T04:42:54;6.00;;;5.20;;
9398;SDS011;4739;49.334;8.792;2022-09-06T04:45:19;6.60;;;5.10;;
9398;SDS011;4739;49.334;8.792;2022-09-06T04:47:45;6.10;;;4.43;;
9398;SDS011;4739;49.334;8.792;2022-09-06T04:50:11;5.53;;;5.00;;
9398;SDS011;4739;49.334;8.792;2022-09-06T04:52:36;6.73;;;4.90;;
9398;SDS011;4739;49.334;8.792;2022-09-06T04:55:02;6.47;;;5.50;;
9398;SDS011;4739;49.334;8.792;2022-09-06T04:57:28;5.67;;;5.10;;
9398;SDS011;4739;49.334;8.792;2022-09-06T04:59:54;6.13;;;5.53;;
9398;SDS011;4739;49.334;8.792;2022-09-06T05:02:19;7.53;;;5.30;;
9398;SDS011;4739;49.334;8.792;2022-09-06T05:04:45;6.33;;;4.97;;
9398;SDS011;4739;49.334;8.792;2022-09-06T05:07:10;7.60;;;5.10;;
9398;SDS011;4739;49.334;8.792;2022-09-06T05:09:36;5.80;;;5.17;;
9398;SDS011;4739;49.334;8.792;2022-09-06T05:12:02;6.00;;;5.30;;
9398;SDS011;4739;49.334;8.792;2022-09-06T05:14:27;6.53;;;5.20;;
9398;SDS011;4739;49.334;8.792;2022-09-06T05:16:53;5.07;;;4.67;;
9398;SDS011;4739;49.334;8.792;2022-09-06T05:19:19;5.50;;;5.00;;
9398;SDS011;4739;49.334;8.792;2022-09-06T05:21:45;6.63;;;5.40;;
9398;SDS011;4739;49.334;8.792;2022-09-06T05:24:11;5.37;;;4.80;;
9398;SDS011;4739;49.334;8.792;2022-09-06T05:26:37;5.80;;;4.80;;
9398;SDS011;4739;49.334;8.792;2022-09-06T05:29:02;5.00;;;4.60;;
9398;SDS011;4739;49.334;8.792;2022-09-06T05:31:29;5.90;;;5.40;;
9398;SDS011;4739;49.334;8.792;2022-09-06T05:33:56;8.03;;;5.50;;
9398;SDS011;4739;49.334;8.792;2022-09-06T05:36:22;6.23;;;5.50;;
9398;SDS011;4739;49.334;8.792;2022-09-06T05:38:52;7.07;;;5.30;;
9398;SDS011;4739;49.334;8.792;2022-09-06T05:41:19;6.37;;;5.77;;
9398;SDS011;4739;49.334;8.792;2022-09-06T05:43:45;5.77;;;5.27;;
9398;SDS011;4739;49.334;8.792;2022-09-06T05:46:11;6.00;;;5.40;;
9398;SDS011;4739;49.334;8.792;2022-09-06T05:48:37;6.50;;;5.50;;
9398;SDS011;4739;49.334;8.792;2022-09-06T05:51:05;5.87;;;5.37;;
9398;SDS011;4739;49.334;8.792;2022-09-06T05:53:41;6.73;;;6.03;;
9398;SDS011;4739;49.334;8.792;2022-09-06T05:56:08;6.90;;;6.20;;
9398;SDS011;4739;49.334;8.792;2022-09-06T05:58:35;7.17;;;5.87;;
9398;SDS011;4739;49.334;8.792;2022-09-06T06:01:05;6.80;;;6.20;;
9398;SDS011;4739;49.334;8.792;2022-09-06T06:03:31;7.27;;;5.47;;
9398;SDS011;4739;49.334;8.792;2022-09-06T06:05:57;6.27;;;5.70;;
9398;SDS011;4739;49.334;8.792;2022-09-06T06:08:23;6.17;;;5.57;;
9398;SDS011;4739;49.334;8.792;2022-09-06T06:10:48;6.53;;;5.83;;
9398;SDS011;4739;49.334;8.792;2022-09-06T06:13:14;5.80;;;5.30;;
9398;SDS011;4739;49.334;8.792;2022-09-06T06:15:40;11.47;;;6.03;;
9398;SDS011;4739;49.334;8.792;2022-09-06T06:20:36;6.43;;;5.77;;
9398;SDS011;4739;49.334;8.792;2022-09-06T06:23:02;6.07;;;5.43;;
9398;SDS011;4739;49.334;8.792;2022-09-06T06:25:28;6.77;;;5.23;;
9398;SDS011;4739;49.334;8.792;2022-09-06T06:27:53;6.93;;;6.03;;
9398;SDS011;4739;49.334;8.792;2022-09-06T06:30:19;6.27;;;5.67;;
9398;SDS011;4739;49.334;8.792;2022-09-06T06:32:45;5.80;;;5.30;;
9398;SDS011;4739;49.334;8.792;2022-09-06T06:35:10;6.57;;;5.60;;
9398;SDS011;4739;49.334;8.792;2022-09-06T06:37:36;6.50;;;5.70;;
9398;SDS011;4739;49.334;8.792;2022-09-06T06:40:02;6.10;;;5.50;;
9398;SDS011;4739;49.334;8.792;2022-09-06T06:42:29;7.00;;;6.00;;
9398;SDS011;4739;49.334;8.792;2022-09-06T06:44:55;7.43;;;6.30;;
9398;SDS011;4739;49.334;8.792;2022-09-06T06:47:20;6.07;;;5.43;;
9398;SDS011;4739;49.334;8.792;2022-09-06T06:49:46;6.23;;;5.63;;
9398;SDS011;4739;49.334;8.792;2022-09-06T06:52:13;6.23;;;5.63;;
9398;SDS011;4739;49.334;8.792;2022-09-06T06:54:38;7.17;;;5.60;;
9398;SDS011;4739;49.334;8.792;2022-09-06T06:57:04;6.00;;;5.37;;
9398;SDS011;4739;49.334;8.792;2022-09-06T06:59:30;6.70;;;5.13;;
9398;SDS011;4739;49.334;8.792;2022-09-06T07:01:55;7.10;;;5.50;;
9398;SDS011;4739;49.334;8.792;2022-09-06T07:04:21;7.50;;;5.50;;
9398;SDS011;4739;49.334;8.792;2022-09-06T07:06:47;6.43;;;5.17;;
9398;SDS011;4739;49.334;8.792;2022-09-06T07:09:20;5.53;;;5.07;;
9398;SDS011;4739;49.334;8.792;2022-09-06T07:11:46;7.00;;;5.80;;
9398;SDS011;4739;49.334;8.792;2022-09-06T07:14:15;6.17;;;5.60;;
9398;SDS011;4739;49.334;8.792;2022-09-06T07:16:41;6.70;;;5.80;;
9398;SDS011;4739;49.334;8.792;2022-09-06T07:19:08;5.83;;;5.33;;
9398;SDS011;4739;49.334;8.792;2022-09-06T07:21:34;6.50;;;5.80;;
9398;SDS011;4739;49.334;8.792;2022-09-06T07:24:00;5.30;;;4.80;;
9398;SDS011;4739;49.334;8.792;2022-09-06T07:26:27;6.70;;;6.00;;
9398;SDS011;4739;49.334;8.792;2022-09-06T07:28:58;6.37;;;5.87;;
9398;SDS011;4739;49.334;8.792;2022-09-06T07:31:25;5.70;;;5.30;;
9398;SDS011;4739;49.334;8.792;2022-09-06T07:33:52;6.13;;;5.53;;
9398;SDS011;4739;49.334;8.792;2022-09-06T07:36:18;5.90;;;5.40;;
9398;SDS011;4739;49.334;8.792;2022-09-06T07:38:46;7.37;;;5.20;;
9398;SDS011;4739;49.334;8.792;2022-09-06T07:41:13;9.03;;;5.60;;
9398;SDS011;4739;49.334;8.792;2022-09-06T07:43:41;5.97;;;5.30;;
9398;SDS011;4739;49.334;8.792;2022-09-06T07:46:10;7.07;;;5.80;;
9398;SDS011;4739;49.334;8.792;2022-09-06T07:48:38;6.40;;;5.80;;
9398;SDS011;4739;49.334;8.792;2022-09-06T07:51:06;6.20;;;5.47;;
9398;SDS011;4739;49.334;8.792;2022-09-06T07:53:38;6.03;;;5.33;;
9398;SDS011;4739;49.334;8.792;2022-09-06T07:56:05;6.27;;;5.47;;
9398;SDS011;4739;49.334;8.792;2022-09-06T07:58:33;5.80;;;5.00;;
9398;SDS011;4739;49.334;8.792;2022-09-06T08:03:43;6.53;;;4.57;;
9398;SDS011;4739;49.334;8.792;2022-09-06T08:06:09;5.70;;;5.10;;
9398;SDS011;4739;49.334;8.792;2022-09-06T08:08:36;6.53;;;4.80;;
9398;SDS011;4739;49.334;8.792;2022-09-06T08:11:02;5.70;;;4.80;;
9398;SDS011;4739;49.334;8.792;2022-09-06T08:13:31;4.97;;;4.57;;
9398;SDS011;4739;49.334;8.792;2022-09-06T08:16:00;7.47;;;4.90;;
9398;SDS011;4739;49.334;8.792;2022-09-06T08:18:27;6.23;;;4.97;;
9398;SDS011;4739;49.334;8.792;2022-09-06T08:20:53;5.70;;;4.50;;
9398;SDS011;4739;49.334;8.792;2022-09-06T08:23:19;4.77;;;4.20;;
9398;SDS011;4739;49.334;8.792;2022-09-06T08:25:54;6.73;;;5.00;;
9398;SDS011;4739;49.334;8.792;2022-09-06T08:28:21;4.90;;;4.40;;
9398;SDS011;4739;49.334;8.792;2022-09-06T08:30:47;5.37;;;4.60;;
9398;SDS011;4739;49.334;8.792;2022-09-06T08:33:13;4.90;;;4.40;;
9398;SDS011;4739;49.334;8.792;2022-09-06T08:35:39;5.23;;;4.73;;
9398;SDS011;4739;49.334;8.792;2022-09-06T08:38:05;4.97;;;4.47;;
9398;SDS011;4739;49.334;8.792;2022-09-06T08:40:31;5.10;;;4.40;;
9398;SDS011;4739;49.334;8.792;2022-09-06T08:42:57;5.17;;;4.67;;
9398;SDS011;4739;49.334;8.792;2022-09-06T08:45:23;6.80;;;4.23;;
9398;SDS011;4739;49.334;8.792;2022-09-06T08:47:49;5.10;;;4.60;;
9398;SDS011;4739;49.334;8.792;2022-09-06T08:50:16;4.97;;;4.47;;
9398;SDS011;4739;49.334;8.792;2022-09-06T09:00:16;5.40;;;4.73;;
9398;SDS011;4739;49.334;8.792;2022-09-06T09:02:54;4.83;;;4.17;;
9398;SDS011;4739;49.334;8.792;2022-09-06T09:05:27;5.17;;;4.50;;
9398;SDS011;4739;49.334;8.792;2022-09-06T09:10:26;4.80;;;4.37;;
9398;SDS011;4739;49.334;8.792;2022-09-06T09:12:52;6.40;;;4.63;;
9398;SDS011;4739;49.334;8.792;2022-09-06T09:15:19;5.77;;;4.17;;
9398;SDS011;4739;49.334;8.792;2022-09-06T09:17:46;5.23;;;4.10;;
9398;SDS011;4739;49.334;8.792;2022-09-06T09:20:13;8.70;;;4.40;;
9398;SDS011;4739;49.334;8.792;2022-09-06T09:22:39;5.77;;;4.10;;
9398;SDS011;4739;49.334;8.792;2022-09-06T09:25:07;7.83;;;3.93;;
9398;SDS011;4739;49.334;8.792;2022-09-06T09:27:33;6.70;;;4.03;;
9398;SDS011;4739;49.334;8.792;2022-09-06T09:30:02;9.30;;;4.33;;
9398;SDS011;4739;49.334;8.792;2022-09-06T09:37:40;5.10;;;4.20;;
9398;SDS011;4739;49.334;8.792;2022-09-06T09:40:11;4.70;;;4.03;;
9398;SDS011;4739;49.334;8.792;2022-09-06T09:42:38;5.55;;;3.65;;
9398;SDS011;4739;49.334;8.792;2022-09-06T09:45:27;4.30;;;3.78;;
9398;SDS011;4739;49.334;8.792;2022-09-06T09:47:51;5.00;;;3.92;;
9398;SDS011;4739;49.334;8.792;2022-09-06T09:52:52;7.60;;;4.05;;
9398;SDS011;4739;49.334;8.792;2022-09-06T09:55:22;5.18;;;3.50;;
9398;SDS011;4739;49.334;8.792;2022-09-06T09:57:49;4.70;;;3.55;;
9398;SDS011;4739;49.334;8.792;2022-09-06T10:00:34;7.50;;;3.95;;
9398;SDS011;4739;49.334;8.792;2022-09-06T10:03:10;6.30;;;4.20;;
9398;SDS011;4739;49.334;8.792;2022-09-06T10:05:36;4.53;;;4.13;;
9398;SDS011;4739;49.334;8.792;2022-09-06T10:08:03;4.63;;;3.75;;
9398;SDS011;4739;49.334;8.792;2022-09-06T10:10:39;4.25;;;3.72;;
9398;SDS011;4739;49.334;8.792;2022-09-06T10:13:07;4.18;;;3.72;;
9398;SDS011;4739;49.334;8.792;2022-09-06T10:15:36;4.15;;;3.35;;
9398;SDS011;4739;49.334;8.792;2022-09-06T10:20:38;5.28;;;3.47;;
9398;SDS011;4739;49.334;8.792;2022-09-06T10:28:35;3.95;;;3.10;;
9398;SDS011;4739;49.334;8.792;2022-09-06T10:33:49;3.83;;;3.35;;
9398;SDS011;4739;49.334;8.792;2022-09-06T10:36:18;7.07;;;3.60;;
9398;SDS011;4739;49.334;8.792;2022-09-06T10:38:58;5.53;;;3.50;;
9398;SDS011;4739;49.334;8.792;2022-09-06T10:41:31;3.47;;;3.13;;
9398;SDS011;4739;49.334;8.792;2022-09-06T10:44:22;5.22;;;3.88;;
9398;SDS011;4739;49.334;8.792;2022-09-06T10:46:45;4.13;;;3.10;;
9398;SDS011;4739;49.334;8.792;2022-09-06T10:49:13;5.05;;;3.35;;
9398;SDS011;4739;49.334;8.792;2022-09-06T10:51:56;5.03;;;3.47;;
9398;SDS011;4739;49.334;8.792;2022-09-06T10:54:24;5.35;;;3.63;;
9398;SDS011;4739;49.334;8.792;2022-09-06T11:04:42;5.95;;;3.88;;
9398;SDS011;4739;49.334;8.792;2022-09-06T11:07:14;5.80;;;3.20;;
9398;SDS011;4739;49.334;8.792;2022-09-06T11:09:44;6.15;;;3.60;;
9398;SDS011;4739;49.334;8.792;2022-09-06T11:14:36;4.88;;;3.83;;
9398;SDS011;4739;49.334;8.792;2022-09-06T11:17:07;4.13;;;3.40;;
9398;SDS011;4739;49.334;8.792;2022-09-06T11:29:51;7.07;;;3.20;;
9398;SDS011;4739;49.334;8.792;2022-09-06T11:34:50;4.53;;;3.13;;
9398;SDS011;4739;49.334;8.792;2022-09-06T11:37:37;3.65;;;3.03;;
9398;SDS011;4739;49.334;8.792;2022-09-06T11:40:07;6.80;;;3.13;;
9398;SDS011;4739;49.334;8.792;2022-09-06T11:42:38;5.65;;;3.00;;
9398;SDS011;4739;49.334;8.792;2022-09-06T11:47:35;5.20;;;3.00;;
9398;SDS011;4739;49.334;8.792;2022-09-06T11:50:17;6.85;;;2.90;;
9398;SDS011;4739;49.334;8.792;2022-09-06T11:58:26;7.25;;;3.42;;
9398;SDS011;4739;49.334;8.792;2022-09-06T12:08:38;3.67;;;2.47;;
9398;SDS011;4739;49.334;8.792;2022-09-06T12:11:05;6.43;;;2.80;;
9398;SDS011;4739;49.334;8.792;2022-09-06T12:15:57;9.93;;;3.35;;
9398;SDS011;4739;49.334;8.792;2022-09-06T12:21:09;6.28;;;2.70;;
9398;SDS011;4739;49.334;8.792;2022-09-06T12:23:55;3.50;;;2.83;;
9398;SDS011;4739;49.334;8.792;2022-09-06T12:29:08;6.45;;;2.50;;
9398;SDS011;4739;49.334;8.792;2022-09-06T12:31:40;2.65;;;1.92;;
9398;SDS011;4739;49.334;8.792;2022-09-06T12:34:11;6.18;;;2.45;;
9398;SDS011;4739;49.334;8.792;2022-09-06T12:36:45;5.20;;;2.00;;
9398;SDS011;4739;49.334;8.792;2022-09-06T12:39:12;4.75;;;2.10;;
9398;SDS011;4739;49.334;8.792;2022-09-06T12:41:39;5.78;;;2.10;;
9398;SDS011;4739;49.334;8.792;2022-09-06T12:44:06;4.32;;;2.47;;
9398;SDS011;4739;49.334;8.792;2022-09-06T12:46:32;4.68;;;2.47;;
9398;SDS011;4739;49.334;8.792;2022-09-06T12:49:06;4.00;;;2.08;;
9398;SDS011;4739;49.334;8.792;2022-09-06T12:51:33;3.85;;;1.90;;
9398;SDS011;4739;49.334;8.792;2022-09-06T12:54:03;4.15;;;2.08;;
9398;SDS011;4739;49.334;8.792;2022-09-06T12:56:31;5.15;;;2.20;;
9398;SDS011;4739;49.334;8.792;2022-09-06T13:01:59;3.53;;;1.92;;
9398;SDS011;4739;49.334;8.792;2022-09-06T13:07:03;3.42;;;1.83;;
9398;SDS011;4739;49.334;8.792;2022-09-06T13:09:30;4.22;;;2.10;;
9398;SDS011;4739;49.334;8.792;2022-09-06T13:12:00;5.95;;;2.10;;
9398;SDS011;4739;49.334;8.792;2022-09-06T13:14:28;3.50;;;1.88;;
9398;SDS011;4739;49.334;8.792;2022-09-06T13:16:55;4.35;;;1.98;;
9398;SDS011;4739;49.334;8.792;2022-09-06T13:19:35;2.40;;;2.00;;
9398;SDS011;4739;49.334;8.792;2022-09-06T13:22:02;4.10;;;1.60;;
9398;SDS011;4739;49.334;8.792;2022-09-06T13:26:55;5.78;;;2.13;;
9398;SDS011;4739;49.334;8.792;2022-09-06T13:29:30;3.72;;;1.77;;
9398;SDS011;4739;49.334;8.792;2022-09-06T13:31:57;5.47;;;2.03;;
9398;SDS011;4739;49.334;8.792;2022-09-06T13:34:25;5.50;;;1.80;;
9398;SDS011;4739;49.334;8.792;2022-09-06T13:36:52;3.05;;;1.60;;
9398;SDS011;4739;49.334;8.792;2022-09-06T13:39:29;4.70;;;2.10;;
9398;SDS011;4739;49.334;8.792;2022-09-06T13:41:58;3.28;;;1.60;;
9398;SDS011;4739;49.334;8.792;2022-09-06T13:44:29;2.83;;;1.70;;
9398;SDS011;4739;49.334;8.792;2022-09-06T13:46:55;2.35;;;1.52;;
9398;SDS011;4739;49.334;8.792;2022-09-06T13:49:22;4.63;;;1.90;;
9398;SDS011;4739;49.334;8.792;2022-09-06T13:51:48;4.15;;;2.00;;
9398;SDS011;4739;49.334;8.792;2022-09-06T13:54:14;3.05;;;1.90;;
9398;SDS011;4739;49.334;8.792;2022-09-06T13:56:41;4.03;;;1.80;;
9398;SDS011;4739;49.334;8.792;2022-09-06T13:59:09;5.57;;;2.03;;
9398;SDS011;4739;49.334;8.792;2022-09-06T14:01:35;2.17;;;1.42;;
9398;SDS011;4739;49.334;8.792;2022-09-06T14:04:01;4.65;;;2.17;;
9398;SDS011;4739;49.334;8.792;2022-09-06T14:06:27;5.45;;;1.75;;
9398;SDS011;4739;49.334;8.792;2022-09-06T14:08:53;2.42;;;1.55;;
9398;SDS011;4739;49.334;8.792;2022-09-06T14:11:19;4.78;;;1.70;;
9398;SDS011;4739;49.334;8.792;2022-09-06T14:13:45;4.18;;;1.77;;
9398;SDS011;4739;49.334;8.792;2022-09-06T14:16:11;5.63;;;1.85;;
9398;SDS011;4739;49.334;8.792;2022-09-06T14:18:38;2.83;;;1.60;;
9398;SDS011;4739;49.334;8.792;2022-09-06T14:21:04;4.28;;;2.10;;
9398;SDS011;4739;49.334;8.792;2022-09-06T14:23:31;5.07;;;1.70;;
9398;SDS011;4739;49.334;8.792;2022-09-06T14:25:58;4.65;;;1.70;;
9398;SDS011;4739;49.334;8.792;2022-09-06T14:28:24;3.47;;;1.65;;
9398;SDS011;4739;49.334;8.792;2022-09-06T14:30:50;4.50;;;1.63;;
9398;SDS011;4739;49.334;8.792;2022-09-06T14:33:17;2.42;;;1.58;;
9398;SDS011;4739;49.334;8.792;2022-09-06T14:35:43;4.72;;;1.60;;
9398;SDS011;4739;49.334;8.792;2022-09-06T14:38:09;3.13;;;1.58;;
9398;SDS011;4739;49.334;8.792;2022-09-06T14:40:37;3.63;;;1.50;;
9398;SDS011;4739;49.334;8.792;2022-09-06T14:43:03;5.18;;;1.80;;
9398;SDS011;4739;49.334;8.792;2022-09-06T14:45:31;5.22;;;1.98;;
9398;SDS011;4739;49.334;8.792;2022-09-06T14:47:57;3.80;;;1.60;;
9398;SDS011;4739;49.334;8.792;2022-09-06T14:50:23;4.32;;;1.80;;
9398;SDS011;4739;49.334;8.792;2022-09-06T14:52:49;3.85;;;1.92;;
9398;SDS011;4739;49.334;8.792;2022-09-06T14:55:15;6.85;;;2.17;;
9398;SDS011;4739;49.334;8.792;2022-09-06T14:57:42;2.35;;;1.55;;
9398;SDS011;4739;49.334;8.792;2022-09-06T15:00:08;3.78;;;1.85;;
9398;SDS011;4739;49.334;8.792;2022-09-06T15:02:35;4.80;;;1.58;;
9398;SDS011;4739;49.334;8.792;2022-09-06T15:05:02;3.88;;;1.85;;
9398;SDS011;4739;49.334;8.792;2022-09-06T15:07:28;4.18;;;1.83;;
9398;SDS011;4739;49.334;8.792;2022-09-06T15:09:55;4.13;;;1.63;;
9398;SDS011;4739;49.334;8.792;2022-09-06T15:12:21;5.03;;;2.00;;
9398;SDS011;4739;49.334;8.792;2022-09-06T15:14:47;4.95;;;2.05;;
9398;SDS011;4739;49.334;8.792;2022-09-06T15:17:13;5.53;;;1.83;;
9398;SDS011;4739;49.334;8.792;2022-09-06T15:19:39;3.63;;;2.05;;
9398;SDS011;4739;49.334;8.792;2022-09-06T15:22:05;4.13;;;1.90;;
9398;SDS011;4739;49.334;8.792;2022-09-06T15:24:32;2.40;;;1.58;;
9398;SDS011;4739;49.334;8.792;2022-09-06T15:26:58;5.30;;;1.90;;
9398;SDS011;4739;49.334;8.792;2022-09-06T15:29:25;6.38;;;1.90;;
9398;SDS011;4739;49.334;8.792;2022-09-06T15:31:51;4.45;;;1.95;;
9398;SDS011;4739;49.334;8.792;2022-09-06T15:34:18;4.13;;;1.95;;
9398;SDS011;4739;49.334;8.792;2022-09-06T15:36:45;2.85;;;1.77;;
9398;SDS011;4739;49.334;8.792;2022-09-06T15:39:11;6.60;;;2.72;;
9398;SDS011;4739;49.334;8.792;2022-09-06T15:41:38;5.47;;;2.60;;
9398;SDS011;4739;49.334;8.792;2022-09-06T15:44:12;6.60;;;2.17;;
9398;SDS011;4739;49.334;8.792;2022-09-06T15:49:05;2.38;;;1.90;;
9398;SDS011;4739;49.334;8.792;2022-09-06T15:51:32;4.60;;;2.25;;
9398;SDS011;4739;49.334;8.792;2022-09-06T15:53:59;3.20;;;2.28;;
9398;SDS011;4739;49.334;8.792;2022-09-06T15:56:25;3.92;;;2.05;;
9398;SDS011;4739;49.334;8.792;2022-09-06T15:58:51;5.32;;;2.22;;
9398;SDS011;4739;49.334;8.792;2022-09-06T16:01:21;5.43;;;2.20;;
9398;SDS011;4739;49.334;8.792;2022-09-06T16:03:48;3.65;;;2.15;;
9398;SDS011;4739;49.334;8.792;2022-09-06T16:06:25;5.55;;;2.25;;
9398;SDS011;4739;49.334;8.792;2022-09-06T16:08:54;4.95;;;2.05;;
9398;SDS011;4739;49.334;8.792;2022-09-06T16:11:22;4.05;;;2.00;;
9398;SDS011;4739;49.334;8.792;2022-09-06T16:13:48;5.30;;;1.83;;
9398;SDS011;4739;49.334;8.792;2022-09-06T16:16:15;6.82;;;2.20;;
9398;SDS011;4739;49.334;8.792;2022-09-06T16:18:42;4.63;;;2.20;;
9398;SDS011;4739;49.334;8.792;2022-09-06T16:23:38;4.32;;;1.98;;
9398;SDS011;4739;49.334;8.792;2022-09-06T16:26:05;4.28;;;1.95;;
9398;SDS011;4739;49.334;8.792;2022-09-06T16:28:32;2.00;;;1.70;;
9398;SDS011;4739;49.334;8.792;2022-09-06T16:30:59;3.65;;;1.88;;
9398;SDS011;4739;49.334;8.792;2022-09-06T16:33:26;3.97;;;2.03;;
9398;SDS011;4739;49.334;8.792;2022-09-06T16:35:52;2.92;;;1.77;;
9398;SDS011;4739;49.334;8.792;2022-09-06T16:38:18;5.63;;;2.20;;
9398;SDS011;4739;49.334;8.792;2022-09-06T16:40:44;4.50;;;1.70;;
9398;SDS011;4739;49.334;8.792;2022-09-06T16:43:10;5.32;;;2.20;;
9398;SDS011;4739;49.334;8.792;2022-09-06T16:45:37;7.22;;;2.55;;
9398;SDS011;4739;49.334;8.792;2022-09-06T16:48:03;3.75;;;2.38;;
9398;SDS011;4739;49.334;8.792;2022-09-06T16:50:30;5.30;;;2.30;;
9398;SDS011;4739;49.334;8.792;2022-09-06T16:52:56;6.78;;;2.38;;
9398;SDS011;4739;49.334;8.792;2022-09-06T16:55:23;5.43;;;2.13;;
9398;SDS011;4739;49.334;8.792;2022-09-06T16:57:50;5.38;;;1.92;;
9398;SDS011;4739;49.334;8.792;2022-09-06T17:00:16;5.43;;;1.98;;
9398;SDS011;4739;49.334;8.792;2022-09-06T17:02:42;6.07;;;2.88;;
9398;SDS011;4739;49.334;8.792;2022-09-06T17:05:09;5.68;;;3.22;;
9398;SDS011;4739;49.334;8.792;2022-09-06T17:07:35;4.63;;;2.10;;
9398;SDS011;4739;49.334;8.792;2022-09-06T17:10:02;7.18;;;2.60;;
9398;SDS011;4739;49.334;8.792;2022-09-06T17:12:28;3.90;;;2.10;;
9398;SDS011;4739;49.334;8.792;2022-09-06T17:14:55;7.05;;;2.30;;
9398;SDS011;4739;49.334;8.792;2022-09-06T17:17:21;4.22;;;2.20;;
9398;SDS011;4739;49.334;8.792;2022-09-06T17:19:47;6.28;;;3.22;;
9398;SDS011;4739;49.334;8.792;2022-09-06T17:22:13;5.45;;;2.08;;